Time;durP1;ratioP1;P1;durP2;ratioP2;P2;SDS_P1;SDS_P2;PMS_P1;PMS_P2;Temp;Humidity;BMP_temperature;BMP_pressure;BME280_temperature;BME280_humidity;BME280_pressure;Samples;Min_cycle;Max_cycle;Signal;HPM_P1;HPM_P2
2024/04/01 07:32:18;;;;;;;12.20;5.35;;;;;;;;;;1374956;26;20045;-74
2024/04/01 07:34:44;;;;;;;11.68;5.72;;;;;;;;;;4997045;28;20038;-74
2024/04/01 07:37:13;;;;;;;13.45;5.70;;;;;;;;;;4996271;28;20049;-75
2024/04/01 07:39:39;;;;;;;8.88;5.05;;;;;;;;;;4995974;28;20044;-76
2024/04/01 07:42:05;;;;;;;12.75;5.00;;;;;;;;;;4995841;28;20049;-76
2024/04/01 07:44:31;;;;;;;14.50;4.93;;;;;;;;;;4995334;28;20121;-74
2024/04/01 07:46:57;;;;;;;12.85;5.80;;;;;;;;;;4996002;28;20039;-75
2024/04/01 07:49:23;;;;;;;9.00;4.68;;;;;;;;;;4999513;28;20030;-75
2024/04/01 07:51:50;;;;;;;9.80;4.78;;;;;;;;;;4997735;28;20048;-74
2024/04/01 07:54:16;;;;;;;16.10;5.13;;;;;;;;;;4997551;28;20499;-75
2024/04/01 07:56:42;;;;;;;15.82;5.43;;;;;;;;;;4998387;28;20054;-75
2024/04/01 07:59:08;;;;;;;6.25;4.47;;;;;;;;;;5000190;28;20065;-76
2024/04/01 08:01:34;;;;;;;14.55;5.05;;;;;;;;;;4996180;28;20117;-74
2024/04/01 08:04:00;;;;;;;8.52;4.88;;;;;;;;;;4981536;28;20033;-75
2024/04/01 08:06:26;;;;;;;11.10;5.38;;;;;;;;;;4997761;28;20506;-75
2024/04/01 08:08:52;;;;;;;12.57;4.60;;;;;;;;;;4999006;28;20038;-74
2024/04/01 08:11:18;;;;;;;12.85;4.82;;;;;;;;;;5004730;28;20053;-75
2024/04/01 08:13:44;;;;;;;8.02;4.30;;;;;;;;;;5009629;28;20476;-74
2024/04/01 08:16:10;;;;;;;12.55;4.22;;;;;;;;;;5008463;28;20145;-80
2024/04/01 08:18:36;;;;;;;11.32;4.90;;;;;;;;;;4994953;28;20038;-77
2024/04/01 08:21:02;;;;;;;15.23;4.72;;;;;;;;;;4990731;28;20044;-81
2024/04/01 08:23:37;;;;;;;7.85;4.38;;;;;;;;;;4972514;28;20026;-82
2024/04/01 08:26:06;;;;;;;10.73;4.55;;;;;;;;;;4996220;28;20116;-82
2024/04/01 08:28:34;;;;;;;7.07;3.67;;;;;;;;;;4969618;28;20040;-80
2024/04/01 08:31:00;;;;;;;11.88;4.55;;;;;;;;;;5001419;28;20088;-81
2024/04/01 08:33:27;;;;;;;8.43;4.18;;;;;;;;;;5000055;28;20511;-81
2024/04/01 08:35:53;;;;;;;7.47;4.32;;;;;;;;;;5002065;28;20129;-80
2024/04/01 08:38:19;;;;;;;11.77;3.83;;;;;;;;;;5001055;28;20101;-81
2024/04/01 08:41:05;;;;;;;8.52;4.15;;;;;;;;;;5002906;28;20042;-79
2024/04/01 08:43:39;;;;;;;14.48;4.22;;;;;;;;;;5006927;28;20095;-80
2024/04/01 08:46:05;;;;;;;7.88;4.18;;;;;;;;;;5027973;28;20035;-86
2024/04/01 08:48:31;;;;;;;11.93;4.03;;;;;;;;;;5032848;28;20045;-84
2024/04/01 08:51:04;;;;;;;11.00;4.15;;;;;;;;;;5033200;28;20029;-85
2024/04/01 08:53:42;;;;;;;15.85;4.28;;;;;;;;;;5012797;28;20040;-81
2024/04/01 08:56:08;;;;;;;7.32;3.72;;;;;;;;;;5026639;28;20053;-84
2024/04/01 08:58:34;;;;;;;15.32;4.22;;;;;;;;;;5029044;28;20042;-85
2024/04/01 09:01:00;;;;;;;8.75;3.75;;;;;;;;;;5030979;28;20041;-86
2024/04/01 09:03:26;;;;;;;9.63;3.28;;;;;;;;;;5034443;28;20042;-85
2024/04/01 09:05:54;;;;;;;11.05;3.60;;;;;;;;;;5032478;28;20034;-84
2024/04/01 09:08:20;;;;;;;9.50;3.70;;;;;;;;;;5031187;28;20022;-85
2024/04/01 09:10:46;;;;;;;20.17;4.05;;;;;;;;;;5031361;28;20038;-84
2024/04/01 09:13:13;;;;;;;7.80;3.90;;;;;;;;;;5031192;28;20041;-84
2024/04/01 09:15:40;;;;;;;9.98;3.78;;;;;;;;;;5031093;28;20072;-86
2024/04/01 09:18:10;;;;;;;8.05;3.60;;;;;;;;;;4996263;28;20064;-85
2024/04/01 09:20:36;;;;;;;7.53;3.58;;;;;;;;;;5029311;28;20164;-84
2024/04/01 09:23:02;;;;;;;18.05;4.63;;;;;;;;;;5012320;28;20140;-85
2024/04/01 09:25:27;;;;;;;14.85;4.32;;;;;;;;;;5029124;28;20056;-83
2024/04/01 09:27:53;;;;;;;8.35;4.22;;;;;;;;;;5028328;28;20020;-84
2024/04/01 09:30:19;;;;;;;11.48;4.18;;;;;;;;;;5031087;28;20030;-84
2024/04/01 09:32:45;;;;;;;11.73;4.03;;;;;;;;;;5029555;28;20061;-84
2024/04/01 09:35:11;;;;;;;18.27;4.53;;;;;;;;;;5026465;28;20061;-82
2024/04/01 09:37:37;;;;;;;15.32;4.53;;;;;;;;;;5027177;28;20129;-84
2024/04/01 09:40:03;;;;;;;14.10;4.60;;;;;;;;;;5028011;28;20511;-84
2024/04/01 09:42:29;;;;;;;10.15;4.55;;;;;;;;;;5028339;28;20033;-84
2024/04/01 09:44:55;;;;;;;18.40;4.65;;;;;;;;;;5028443;28;20056;-82
2024/04/01 09:47:21;;;;;;;13.80;4.38;;;;;;;;;;5028159;28;20034;-84
2024/04/01 09:49:47;;;;;;;13.10;5.38;;;;;;;;;;5027398;28;20034;-84
2024/04/01 09:52:13;;;;;;;19.83;5.55;;;;;;;;;;5024406;28;20406;-83
2024/04/01 09:54:40;;;;;;;15.40;5.15;;;;;;;;;;5026653;28;20049;-83
2024/04/01 09:57:08;;;;;;;18.25;5.15;;;;;;;;;;5025347;28;20058;-84
2024/04/01 09:59:53;;;;;;;17.70;4.75;;;;;;;;;;5028056;28;20045;-84
2024/04/01 10:02:25;;;;;;;18.40;4.97;;;;;;;;;;5027242;28;20025;-84
2024/04/01 10:04:55;;;;;;;18.23;5.40;;;;;;;;;;5029004;28;20057;-79
2024/04/01 10:07:21;;;;;;;20.33;4.80;;;;;;;;;;5030366;28;20046;-84
2024/04/01 10:09:56;;;;;;;10.10;5.25;;;;;;;;;;5031340;28;20279;-84
2024/04/01 10:12:41;;;;;;;25.75;4.85;;;;;;;;;;5027684;28;20029;-84
2024/04/01 10:15:13;;;;;;;30.17;5.32;;;;;;;;;;5029095;28;20109;-84
2024/04/01 10:17:45;;;;;;;17.95;5.45;;;;;;;;;;4997410;28;20026;-84
2024/04/01 10:20:11;;;;;;;19.75;5.93;;;;;;;;;;5029181;28;20041;-81
2024/04/01 10:22:53;;;;;;;25.63;5.25;;;;;;;;;;5026865;28;20036;-84
2024/04/01 10:25:22;;;;;;;13.68;5.05;;;;;;;;;;5025827;28;20065;-84
2024/04/01 10:28:00;;;;;;;26.08;5.07;;;;;;;;;;5026203;28;20030;-84
2024/04/01 10:30:45;;;;;;;19.85;5.38;;;;;;;;;;5025417;28;20037;-83
2024/04/01 10:33:14;;;;;;;14.10;5.22;;;;;;;;;;5027364;28;20053;-82
2024/04/01 10:35:43;;;;;;;22.13;4.70;;;;;;;;;;5021907;28;20046;-83
2024/04/01 10:38:12;;;;;;;17.80;4.80;;;;;;;;;;5029379;28;20037;-84
2024/04/01 10:40:41;;;;;;;16.83;4.97;;;;;;;;;;5009547;28;20260;-83
2024/04/01 10:43:13;;;;;;;16.27;5.10;;;;;;;;;;4993998;28;20029;-83
2024/04/01 10:46:03;;;;;;;13.93;4.28;;;;;;;;;;5026134;28;20060;-83
2024/04/01 10:48:29;;;;;;;9.67;4.20;;;;;;;;;;5018325;28;20046;-84
2024/04/01 10:51:13;;;;;;;11.63;4.13;;;;;;;;;;5029164;28;20048;-84
2024/04/01 10:53:56;;;;;;;20.27;5.55;;;;;;;;;;5029740;28;20034;-84
2024/04/01 10:56:23;;;;;;;12.15;4.60;;;;;;;;;;5011444;28;20053;-84
2024/04/01 10:58:48;;;;;;;11.85;5.05;;;;;;;;;;5029586;28;20386;-84
2024/04/01 11:01:33;;;;;;;15.82;5.05;;;;;;;;;;5027662;28;20062;-83
2024/04/01 11:04:06;;;;;;;12.60;4.10;;;;;;;;;;5026977;28;20498;-85
2024/04/01 11:06:35;;;;;;;16.05;3.88;;;;;;;;;;5027524;28;20053;-83
2024/04/01 11:09:05;;;;;;;17.73;4.50;;;;;;;;;;5029966;28;20026;-85
2024/04/01 11:11:49;;;;;;;10.20;4.07;;;;;;;;;;5030370;28;20056;-84
2024/04/01 11:14:15;;;;;;;6.97;3.75;;;;;;;;;;5027111;28;20034;-83
2024/04/01 11:16:42;;;;;;;12.02;3.92;;;;;;;;;;5008302;28;20061;-84
2024/04/01 11:19:25;;;;;;;11.43;4.57;;;;;;;;;;5025114;28;20041;-83
2024/04/01 11:21:52;;;;;;;15.43;3.85;;;;;;;;;;5007199;28;20183;-83
2024/04/01 11:24:22;;;;;;;8.18;3.97;;;;;;;;;;5024988;28;20045;-83
2024/04/01 11:26:48;;;;;;;;;;;;;;;;;;5023756;28;20101;-84
2024/04/01 11:29:30;;;;;;;14.20;3.75;;;;;;;;;;5022130;28;20418;-82
2024/04/01 11:32:00;;;;;;;12.95;4.07;;;;;;;;;;5020886;28;20134;-83
2024/04/01 11:34:26;;;;;;;11.38;3.65;;;;;;;;;;5005518;28;20125;-83
2024/04/01 11:37:01;;;;;;;7.15;3.45;;;;;;;;;;5021069;28;20046;-83
2024/04/01 11:39:28;;;;;;;15.05;3.80;;;;;;;;;;5007145;28;20033;-84
2024/04/01 11:41:53;;;;;;;11.63;3.78;;;;;;;;;;5027144;28;20037;-82
2024/04/01 11:44:20;;;;;;;11.85;3.33;;;;;;;;;;5028430;28;20132;-83
2024/04/01 11:46:46;;;;;;;10.70;3.80;;;;;;;;;;5029894;28;20022;-83
2024/04/01 11:49:12;;;;;;;9.98;3.95;;;;;;;;;;5028327;28;20041;-82
2024/04/01 11:51:38;;;;;;;9.48;3.80;;;;;;;;;;5030254;28;20038;-84
2024/04/01 11:54:04;;;;;;;8.07;3.70;;;;;;;;;;5028608;28;20034;-83
2024/04/01 11:56:40;;;;;;;13.02;4.00;;;;;;;;;;5011971;28;20073;-83
2024/04/01 11:59:09;;;;;;;10.50;4.50;;;;;;;;;;5032937;28;20110;-82
2024/04/01 12:01:35;;;;;;;10.07;4.22;;;;;;;;;;5018335;28;20034;-82
2024/04/01 12:04:02;;;;;;;13.93;3.80;;;;;;;;;;5036910;28;20048;-82
2024/04/01 12:06:31;;;;;;;20.98;4.40;;;;;;;;;;5033818;28;20048;-83
2024/04/01 12:09:01;;;;;;;14.80;4.97;;;;;;;;;;5036781;28;20037;-82
2024/04/01 12:11:27;;;;;;;9.73;4.03;;;;;;;;;;5031698;28;20026;-84
2024/04/01 12:13:54;;;;;;;8.57;4.47;;;;;;;;;;5033315;28;20038;-85
2024/04/01 12:16:44;;;;;;;13.65;4.78;;;;;;;;;;4999537;28;20065;-83
2024/04/01 12:19:11;;;;;;;11.75;4.15;;;;;;;;;;5034464;28;20030;-84
2024/04/01 12:21:37;;;;;;;22.05;8.63;;;;;;;;;;5021636;28;20041;-85
2024/04/01 12:24:06;;;;;;;12.18;4.38;;;;;;;;;;5037322;28;20042;-85
2024/04/01 12:26:35;;;;;;;13.77;4.55;;;;;;;;;;5035406;28;20057;-81
2024/04/01 12:29:01;;;;;;;18.35;5.00;;;;;;;;;;5019002;28;20068;-84
2024/04/01 12:31:27;;;;;;;14.57;5.18;;;;;;;;;;5036153;28;20526;-84
2024/04/01 12:33:53;;;;;;;10.77;4.25;;;;;;;;;;5035404;28;20060;-82
2024/04/01 12:36:19;;;;;;;20.25;4.65;;;;;;;;;;5035666;28;20057;-83
2024/04/01 12:38:45;;;;;;;14.02;5.00;;;;;;;;;;5019179;28;20038;-83
2024/04/01 12:41:17;;;;;;;14.63;4.68;;;;;;;;;;5033985;28;20030;-82
2024/04/01 12:43:43;;;;;;;16.25;5.53;;;;;;;;;;5035572;28;20017;-83
2024/04/01 12:46:11;;;;;;;9.50;4.68;;;;;;;;;;5032631;28;20130;-84
2024/04/01 12:48:38;;;;;;;6.32;4.32;;;;;;;;;;5032853;28;20053;-84
2024/04/01 12:51:04;;;;;;;18.63;5.43;;;;;;;;;;5033463;28;20102;-84
2024/04/01 12:53:35;;;;;;;16.70;5.22;;;;;;;;;;5034338;28;20033;-83
2024/04/01 12:56:06;;;;;;;27.52;6.85;;;;;;;;;;5035887;28;20060;-83
2024/04/01 12:58:42;;;;;;;16.08;4.53;;;;;;;;;;5016409;28;20032;-81
2024/04/01 13:01:09;;;;;;;21.08;5.28;;;;;;;;;;5033728;28;20041;-83
2024/04/01 13:03:48;;;;;;;21.48;6.05;;;;;;;;;;5017198;28;20053;-83
2024/04/01 13:06:32;;;;;;;14.57;5.63;;;;;;;;;;5031184;28;20053;-83
2024/04/01 13:09:11;;;;;;;14.90;4.63;;;;;;;;;;5032209;28;20037;-83
2024/04/01 13:11:44;;;;;;;17.25;5.63;;;;;;;;;;5014074;28;20044;-84
2024/04/01 13:14:27;;;;;;;25.98;4.70;;;;;;;;;;5031453;28;20081;-83
2024/04/01 13:16:56;;;;;;;13.15;4.82;;;;;;;;;;5032496;28;20026;-81
2024/04/01 13:19:27;;;;;;;19.15;5.63;;;;;;;;;;5034653;28;20044;-83
2024/04/01 13:22:09;;;;;;;23.45;4.93;;;;;;;;;;5002299;28;20038;-82
2024/04/01 13:24:39;;;;;;;22.48;5.00;;;;;;;;;;5036587;28;20097;-83
2024/04/01 13:27:18;;;;;;;24.65;5.53;;;;;;;;;;5020647;28;20022;-83
2024/04/01 13:30:05;;;;;;;14.82;4.97;;;;;;;;;;5020850;28;20022;-84
2024/04/01 13:32:48;;;;;;;19.02;5.38;;;;;;;;;;5036636;28;20061;-82
2024/04/01 13:35:33;;;;;;;11.45;5.15;;;;;;;;;;5036217;28;20022;-82
2024/04/01 13:38:22;;;;;;;22.10;6.03;;;;;;;;;;5034863;28;20079;-83
2024/04/01 13:41:05;;;;;;;12.45;5.53;;;;;;;;;;5033991;28;20017;-83
2024/04/01 13:43:33;;;;;;;21.02;5.28;;;;;;;;;;5033627;28;20048;-82
2024/04/01 13:46:13;;;;;;;13.25;5.30;;;;;;;;;;5034004;28;20040;-84
2024/04/01 13:48:58;;;;;;;19.00;5.45;;;;;;;;;;5019995;28;20034;-83
2024/04/01 13:51:42;;;;;;;21.13;5.55;;;;;;;;;;5020549;28;20026;-83
2024/04/01 13:54:09;;;;;;;14.77;4.63;;;;;;;;;;5037070;28;20030;-84
2024/04/01 13:56:48;;;;;;;18.30;5.43;;;;;;;;;;5035856;28;20085;-83
2024/04/01 14:39:22;;;;;;;18.15;5.50;;;;;;;;;;1240289;23;20034;-85
2024/04/01 14:41:49;;;;;;;21.10;5.40;;;;;;;;;;5030619;28;20053;-84
2024/04/01 14:44:15;;;;;;;12.75;4.95;;;;;;;;;;5032009;28;20109;-84
2024/04/01 14:46:41;;;;;;;19.20;5.03;;;;;;;;;;5013078;28;20034;-84
2024/04/01 14:49:07;;;;;;;14.70;4.72;;;;;;;;;;5029363;28;20045;-83
2024/04/01 14:51:33;;;;;;;13.07;5.78;;;;;;;;;;5021009;28;20085;-83
2024/04/01 14:53:59;;;;;;;19.48;4.93;;;;;;;;;;5025988;28;20061;-83
2024/04/01 14:56:25;;;;;;;17.05;5.25;;;;;;;;;;5021249;28;20057;-83
2024/04/01 14:58:50;;;;;;;15.45;5.28;;;;;;;;;;5009050;28;20037;-83
2024/04/01 15:01:16;;;;;;;13.70;4.97;;;;;;;;;;5008850;28;20049;-84
2024/04/01 15:03:42;;;;;;;16.35;4.60;;;;;;;;;;5029274;28;20034;-84
2024/04/01 15:06:08;;;;;;;9.68;4.80;;;;;;;;;;5028204;28;20040;-83
2024/04/01 15:08:34;;;;;;;15.55;5.05;;;;;;;;;;5031626;28;20045;-82
2024/04/01 15:11:01;;;;;;;12.20;5.13;;;;;;;;;;5026443;28;20030;-82
2024/04/01 15:13:26;;;;;;;10.70;4.60;;;;;;;;;;5020450;28;20030;-85
2024/04/01 15:15:52;;;;;;;9.50;3.92;;;;;;;;;;5030123;28;20497;-81
2024/04/01 15:18:22;;;;;;;19.85;4.32;;;;;;;;;;5030691;28;20044;-84
2024/04/01 15:20:48;;;;;;;14.05;4.70;;;;;;;;;;5029219;28;20033;-84
2024/04/01 15:23:14;;;;;;;13.68;5.07;;;;;;;;;;5026687;28;20086;-84
2024/04/01 15:25:40;;;;;;;14.88;4.90;;;;;;;;;;5028860;28;20053;-83
2024/04/01 15:28:06;;;;;;;15.32;5.10;;;;;;;;;;5029946;28;20042;-83
2024/04/01 15:30:32;;;;;;;13.10;4.70;;;;;;;;;;5005891;28;20082;-83
2024/04/01 15:32:59;;;;;;;11.90;5.57;;;;;;;;;;5027083;28;20060;-83
2024/04/01 15:35:25;;;;;;;19.80;5.55;;;;;;;;;;5029860;28;20134;-84
2024/04/01 15:37:52;;;;;;;15.07;4.90;;;;;;;;;;5033497;28;20017;-85
2024/04/01 15:40:18;;;;;;;14.57;5.30;;;;;;;;;;5024686;28;20054;-85
2024/04/01 15:42:44;;;;;;;22.75;4.70;;;;;;;;;;5035880;28;20040;-85
2024/04/01 15:45:10;;;;;;;17.45;6.53;;;;;;;;;;5034693;28;20076;-84
2024/04/01 15:47:36;;;;;;;25.70;5.53;;;;;;;;;;5026353;28;20069;-83
2024/04/01 15:50:02;;;;;;;17.15;7.05;;;;;;;;;;5003530;28;20053;-83
2024/04/01 15:52:31;;;;;;;16.40;4.80;;;;;;;;;;5024175;28;20528;-84
2024/04/01 15:54:57;;;;;;;10.70;5.13;;;;;;;;;;5001857;28;20148;-82
2024/04/01 15:57:25;;;;;;;10.55;4.53;;;;;;;;;;5007151;28;20034;-84
2024/04/01 15:59:51;;;;;;;14.23;5.82;;;;;;;;;;5023220;28;20098;-81
2024/04/01 16:02:17;;;;;;;17.35;4.70;;;;;;;;;;5019707;28;20038;-83
2024/04/01 16:04:43;;;;;;;10.95;4.55;;;;;;;;;;5038899;28;20026;-83
2024/04/01 16:07:10;;;;;;;12.02;5.05;;;;;;;;;;5024995;28;20076;-83
2024/04/01 16:09:35;;;;;;;15.75;5.47;;;;;;;;;;5026855;28;20105;-85
2024/04/01 16:12:01;;;;;;;10.90;5.07;;;;;;;;;;5029148;28;20035;-84
2024/04/01 16:14:27;;;;;;;14.10;5.43;;;;;;;;;;5026830;28;20061;-83
2024/04/01 16:16:53;;;;;;;12.27;5.45;;;;;;;;;;5022679;28;20038;-83
2024/04/01 16:19:20;;;;;;;16.35;5.43;;;;;;;;;;5027917;28;20050;-84
2024/04/01 16:21:49;;;;;;;17.25;5.78;;;;;;;;;;5010656;28;20026;-83
2024/04/01 16:24:15;;;;;;;25.40;9.10;;;;;;;;;;5004215;28;20037;-84
2024/04/01 16:26:46;;;;;;;18.00;6.03;;;;;;;;;;4999139;28;20045;-83
2024/04/01 16:29:14;;;;;;;17.63;6.28;;;;;;;;;;5019460;28;20041;-82
2024/04/01 16:31:40;;;;;;;14.35;5.25;;;;;;;;;;5011975;28;20030;-83
2024/04/01 16:34:08;;;;;;;15.02;5.13;;;;;;;;;;5028631;28;20061;-83
2024/04/01 16:36:34;;;;;;;18.45;5.38;;;;;;;;;;5009024;28;20042;-83
2024/04/01 16:39:00;;;;;;;11.25;4.15;;;;;;;;;;5029972;28;20030;-83
2024/04/01 16:41:26;;;;;;;17.40;5.60;;;;;;;;;;5015804;28;20034;-80
2024/04/01 16:43:53;;;;;;;8.88;4.45;;;;;;;;;;5007452;28;20031;-79
2024/04/01 16:46:20;;;;;;;14.98;4.07;;;;;;;;;;5005816;28;20046;-79
2024/04/01 16:48:48;;;;;;;13.43;4.35;;;;;;;;;;5005533;28;20482;-80
2024/04/01 16:51:14;;;;;;;21.35;4.10;;;;;;;;;;5011114;28;20463;-80
2024/04/01 16:53:40;;;;;;;9.90;4.90;;;;;;;;;;5008327;28;20044;-79
2024/04/01 16:56:07;;;;;;;10.65;4.63;;;;;;;;;;5006158;28;20058;-79
2024/04/01 16:58:33;;;;;;;14.60;4.45;;;;;;;;;;5001253;28;20037;-81
2024/04/01 17:00:59;;;;;;;17.27;4.50;;;;;;;;;;5004192;28;20100;-80
2024/04/01 17:03:25;;;;;;;10.60;4.68;;;;;;;;;;5003775;28;20500;-81
2024/04/01 17:05:51;;;;;;;8.43;4.35;;;;;;;;;;5004908;28;20104;-80
2024/04/01 17:08:17;;;;;;;17.58;4.85;;;;;;;;;;4990435;28;20050;-80
2024/04/01 17:10:44;;;;;;;7.88;4.85;;;;;;;;;;4989580;28;20037;-80
2024/04/01 17:13:10;;;;;;;10.25;3.90;;;;;;;;;;4987361;28;20039;-78
2024/04/01 17:15:36;;;;;;;18.65;5.10;;;;;;;;;;5001270;28;20149;-80
2024/04/01 17:18:02;;;;;;;12.10;5.07;;;;;;;;;;4994103;28;20198;-81
2024/04/01 17:20:28;;;;;;;12.95;4.95;;;;;;;;;;4991929;28;20100;-80
2024/04/01 17:22:54;;;;;;;11.75;5.40;;;;;;;;;;5009213;28;20485;-80
2024/04/01 17:25:20;;;;;;;14.50;5.05;;;;;;;;;;4997813;28;20057;-82
2024/04/01 17:27:47;;;;;;;22.80;5.28;;;;;;;;;;4994581;28;21591;-81
2024/04/01 17:30:12;;;;;;;12.43;4.90;;;;;;;;;;5013262;28;20026;-80
2024/04/01 17:32:41;;;;;;;14.05;4.95;;;;;;;;;;5006360;28;20038;-78
2024/04/01 17:35:07;;;;;;;10.15;4.80;;;;;;;;;;4998944;28;20053;-78
2024/04/01 17:37:33;;;;;;;9.77;4.70;;;;;;;;;;4998911;28;20088;-78
2024/04/01 17:40:02;;;;;;;10.38;4.95;;;;;;;;;;4998467;28;20498;-77
2024/04/01 17:42:30;;;;;;;13.77;4.47;;;;;;;;;;5001827;28;20030;-78
2024/04/01 17:44:59;;;;;;;15.95;5.10;;;;;;;;;;5001652;28;20040;-79
2024/04/01 17:47:25;;;;;;;11.82;5.22;;;;;;;;;;4985068;28;20030;-79
2024/04/01 17:49:54;;;;;;;17.88;5.88;;;;;;;;;;4984479;28;20030;-77
2024/04/01 17:52:20;;;;;;;14.15;4.40;;;;;;;;;;4985762;28;20046;-80
2024/04/01 17:54:47;;;;;;;15.65;5.60;;;;;;;;;;5003879;28;20092;-78
2024/04/01 17:57:13;;;;;;;15.73;5.15;;;;;;;;;;4996778;28;20776;-79
2024/04/01 17:59:39;;;;;;;17.98;5.72;;;;;;;;;;4993448;28;20554;-77
2024/04/01 18:02:08;;;;;;;14.48;5.30;;;;;;;;;;4999379;28;20050;-77
2024/04/01 18:04:35;;;;;;;12.77;4.65;;;;;;;;;;5006238;28;20457;-77
2024/04/01 18:07:00;;;;;;;16.00;6.20;;;;;;;;;;4993354;28;20066;-77
2024/04/01 18:09:26;;;;;;;11.95;4.85;;;;;;;;;;5006149;28;20076;-79
2024/04/01 18:11:52;;;;;;;13.57;5.53;;;;;;;;;;5001552;28;20042;-76
2024/04/01 18:14:18;;;;;;;14.88;6.65;;;;;;;;;;5005326;28;20088;-79
2024/04/01 18:16:47;;;;;;;18.05;5.38;;;;;;;;;;5005835;28;20133;-78
2024/04/01 18:19:13;;;;;;;10.05;5.40;;;;;;;;;;5004274;28;20537;-79
2024/04/01 18:21:39;;;;;;;10.23;4.78;;;;;;;;;;4990871;28;20033;-78
2024/04/01 18:24:05;;;;;;;11.38;4.82;;;;;;;;;;5002072;28;20130;-79
2024/04/01 18:26:34;;;;;;;13.65;5.53;;;;;;;;;;5002658;28;20061;-80
2024/04/01 18:29:00;;;;;;;13.30;4.43;;;;;;;;;;5005151;28;20031;-81
2024/04/01 18:31:28;;;;;;;7.20;4.95;;;;;;;;;;4996583;28;20030;-80
2024/04/01 18:33:54;;;;;;;8.73;4.60;;;;;;;;;;5004449;28;20037;-78
2024/04/01 18:36:20;;;;;;;9.18;4.97;;;;;;;;;;5001878;28;20141;-79
2024/04/01 18:38:46;;;;;;;15.80;5.40;;;;;;;;;;4999103;28;20030;-80
2024/04/01 18:41:12;;;;;;;18.33;5.43;;;;;;;;;;4992839;28;20153;-77
2024/04/01 18:43:38;;;;;;;12.20;5.13;;;;;;;;;;5000935;28;20025;-81
2024/04/01 18:46:04;;;;;;;13.52;4.75;;;;;;;;;;5003033;28;20049;-80
2024/04/01 18:48:30;;;;;;;7.75;5.32;;;;;;;;;;5002892;28;20439;-77
2024/04/01 18:50:56;;;;;;;12.52;4.80;;;;;;;;;;5005254;28;20093;-76
2024/04/01 18:53:22;;;;;;;14.38;4.80;;;;;;;;;;5013986;28;20033;-76
2024/04/01 18:55:48;;;;;;;15.80;5.07;;;;;;;;;;5008603;28;20426;-77
2024/04/01 18:58:14;;;;;;;12.70;5.03;;;;;;;;;;5007956;28;20038;-77
2024/04/01 19:00:40;;;;;;;14.43;5.47;;;;;;;;;;4982255;28;20226;-77
2024/04/01 19:03:06;;;;;;;20.10;5.20;;;;;;;;;;5005710;28;20089;-77
2024/04/01 19:05:32;;;;;;;9.55;5.32;;;;;;;;;;4999132;28;20168;-77
2024/04/01 19:07:59;;;;;;;12.68;5.57;;;;;;;;;;4999617;28;20040;-77
2024/04/01 19:10:25;;;;;;;12.30;5.70;;;;;;;;;;5004601;28;20026;-77
2024/04/01 19:12:50;;;;;;;12.68;5.30;;;;;;;;;;4996800;28;20080;-77
2024/04/01 19:15:16;;;;;;;10.23;5.60;;;;;;;;;;4995529;28;20050;-77
2024/04/01 19:17:42;;;;;;;12.15;6.05;;;;;;;;;;5005171;28;20061;-78
2024/04/01 19:20:08;;;;;;;13.80;5.05;;;;;;;;;;5004118;28;20072;-78
2024/04/01 19:22:34;;;;;;;12.90;5.57;;;;;;;;;;4996937;28;20034;-79
2024/04/01 19:25:00;;;;;;;16.67;5.57;;;;;;;;;;4998282;28;20403;-77
2024/04/01 19:27:26;;;;;;;15.73;5.75;;;;;;;;;;5002488;28;20049;-79
2024/04/01 19:29:52;;;;;;;13.63;5.50;;;;;;;;;;5001449;28;20029;-79
2024/04/01 19:32:18;;;;;;;13.75;5.13;;;;;;;;;;4984364;28;20137;-78
2024/04/01 19:34:44;;;;;;;13.18;5.10;;;;;;;;;;5000233;28;20506;-79
2024/04/01 19:37:11;;;;;;;11.63;5.22;;;;;;;;;;5011455;28;20088;-78
2024/04/01 19:39:37;;;;;;;15.45;5.35;;;;;;;;;;4999641;28;20054;-80
2024/04/01 19:42:03;;;;;;;17.25;5.90;;;;;;;;;;5004786;28;20046;-77
2024/04/01 19:44:30;;;;;;;9.52;5.22;;;;;;;;;;4999735;28;20097;-79
2024/04/01 19:46:58;;;;;;;14.82;5.70;;;;;;;;;;4996383;28;20042;-78
2024/04/01 19:49:34;;;;;;;15.77;6.15;;;;;;;;;;5005067;28;20042;-79
2024/04/01 19:52:02;;;;;;;7.60;5.13;;;;;;;;;;5000612;28;20045;-77
2024/04/01 19:54:33;;;;;;;11.93;5.07;;;;;;;;;;4998015;28;20034;-78
2024/04/01 19:56:59;;;;;;;13.05;4.90;;;;;;;;;;4985454;28;20068;-78
2024/04/01 19:59:26;;;;;;;12.55;5.63;;;;;;;;;;4997700;28;20069;-79
2024/04/01 20:01:54;;;;;;;14.65;5.38;;;;;;;;;;4998734;28;20093;-81
2024/04/01 20:04:21;;;;;;;17.02;6.18;;;;;;;;;;5002057;28;20088;-80
2024/04/01 20:06:47;;;;;;;13.02;6.05;;;;;;;;;;5003391;28;20461;-79
2024/04/01 20:09:33;;;;;;;13.75;5.65;;;;;;;;;;4998530;28;20031;-78
2024/04/01 20:11:59;;;;;;;11.43;5.35;;;;;;;;;;4994715;28;20030;-82
2024/04/01 20:14:25;;;;;;;16.77;6.05;;;;;;;;;;5000842;28;20086;-80
2024/04/01 20:16:51;;;;;;;13.82;6.15;;;;;;;;;;4999392;28;20076;-79
2024/04/01 20:19:19;;;;;;;14.00;6.22;;;;;;;;;;5001185;28;20096;-77
2024/04/01 20:21:45;;;;;;;13.73;6.03;;;;;;;;;;5003280;28;20030;-76
2024/04/01 20:24:24;;;;;;;16.23;5.70;;;;;;;;;;5007623;28;20038;-79
2024/04/01 20:26:50;;;;;;;10.80;5.57;;;;;;;;;;4997075;28;20625;-79
2024/04/01 20:29:17;;;;;;;13.77;6.05;;;;;;;;;;5000363;28;20038;-78
2024/04/01 20:31:43;;;;;;;16.02;6.22;;;;;;;;;;5006553;28;20025;-79
2024/04/01 20:34:12;;;;;;;18.73;6.18;;;;;;;;;;5008908;28;20409;-78
2024/04/01 20:36:38;;;;;;;10.82;5.80;;;;;;;;;;5007837;28;20079;-79
2024/04/01 20:39:05;;;;;;;14.63;4.90;;;;;;;;;;5010775;28;20034;-80
2024/04/01 20:41:32;;;;;;;20.45;6.78;;;;;;;;;;4993568;28;20498;-80
2024/04/01 20:43:59;;;;;;;14.70;6.65;;;;;;;;;;5009946;28;20143;-79
2024/04/01 20:46:26;;;;;;;12.88;6.38;;;;;;;;;;4989796;28;20041;-84
2024/04/01 20:48:52;;;;;;;19.63;6.45;;;;;;;;;;5009679;28;20113;-79
2024/04/01 20:51:18;;;;;;;12.13;6.47;;;;;;;;;;4995184;28;20156;-82
2024/04/01 20:53:53;;;;;;;21.77;5.95;;;;;;;;;;5009180;28;20092;-81
2024/04/01 20:56:23;;;;;;;16.45;6.65;;;;;;;;;;5018097;28;20117;-83
2024/04/01 20:58:49;;;;;;;15.55;6.32;;;;;;;;;;5029137;28;20633;-84
2024/04/01 21:01:15;;;;;;;13.45;6.80;;;;;;;;;;5026114;28;20034;-82
2024/04/01 21:03:41;;;;;;;15.73;6.63;;;;;;;;;;5152513;23;20053;-83
2024/04/01 21:06:16;;;;;;;13.80;6.25;;;;;;;;;;5004774;28;20042;-76
2024/04/01 21:08:43;;;;;;;13.40;5.95;;;;;;;;;;5216457;22;20065;-80
2024/04/01 21:11:09;;;;;;;14.90;6.55;;;;;;;;;;5002975;28;20030;-82
2024/04/01 21:13:35;;;;;;;12.25;6.35;;;;;;;;;;5012355;28;20442;-82
2024/04/01 21:16:01;;;;;;;13.75;6.60;;;;;;;;;;5012846;28;20049;-81
2024/04/01 21:18:29;;;;;;;17.90;7.45;;;;;;;;;;5014100;28;20065;-81
2024/04/01 21:21:01;;;;;;;13.57;6.03;;;;;;;;;;5016211;28;20045;-82
2024/04/01 21:23:27;;;;;;;20.45;6.40;;;;;;;;;;5013326;28;20030;-82
2024/04/01 21:25:53;;;;;;;16.98;6.88;;;;;;;;;;5015289;28;20422;-76
2024/04/01 21:28:19;;;;;;;11.93;6.75;;;;;;;;;;5013685;28;20501;-81
2024/04/01 21:30:45;;;;;;;15.43;6.35;;;;;;;;;;5008293;28;20040;-78
2024/04/01 21:33:10;;;;;;;15.60;6.43;;;;;;;;;;5007512;28;20042;-77
2024/04/01 21:35:36;;;;;;;20.48;6.57;;;;;;;;;;5009355;28;20073;-81
2024/04/01 21:38:02;;;;;;;17.45;6.72;;;;;;;;;;5011833;28;20046;-77
2024/04/01 21:40:28;;;;;;;11.38;6.55;;;;;;;;;;5008428;28;20430;-82
2024/04/01 21:42:54;;;;;;;13.35;6.05;;;;;;;;;;5009389;28;20392;-79
2024/04/01 21:45:19;;;;;;;14.45;6.72;;;;;;;;;;5007940;28;20463;-80
2024/04/01 21:47:45;;;;;;;15.95;6.30;;;;;;;;;;5010643;28;20057;-79
2024/04/01 21:50:11;;;;;;;12.65;6.57;;;;;;;;;;5009096;28;20038;-81
2024/04/01 21:52:37;;;;;;;9.38;6.10;;;;;;;;;;4994581;28;20025;-81
2024/04/01 21:55:03;;;;;;;7.28;4.57;;;;;;;;;;5008929;28;20072;-80
2024/04/01 21:57:29;;;;;;;12.07;5.20;;;;;;;;;;4991268;28;20029;-80
2024/04/01 21:59:55;;;;;;;13.18;6.05;;;;;;;;;;4990088;28;20488;-81
2024/04/01 22:02:21;;;;;;;15.77;6.32;;;;;;;;;;4989223;28;20030;-80
2024/04/01 22:04:46;;;;;;;16.17;6.43;;;;;;;;;;4991144;28;20113;-80
2024/04/01 22:07:13;;;;;;;12.93;6.47;;;;;;;;;;4990254;28;20100;-80
2024/04/01 22:09:41;;;;;;;12.98;6.30;;;;;;;;;;4992151;28;20054;-80
2024/04/01 22:12:07;;;;;;;26.25;6.70;;;;;;;;;;4989249;28;20038;-78
2024/04/01 22:14:33;;;;;;;13.98;7.05;;;;;;;;;;4990735;28;20026;-78
2024/04/01 22:16:59;;;;;;;16.98;6.68;;;;;;;;;;4971048;28;20418;-80
2024/04/01 22:19:25;;;;;;;12.98;6.45;;;;;;;;;;4990794;28;20038;-81
2024/04/01 22:21:51;;;;;;;9.60;6.82;;;;;;;;;;4990761;28;20140;-80
2024/04/01 22:24:17;;;;;;;12.93;7.18;;;;;;;;;;4990625;28;20042;-80
2024/04/01 22:26:45;;;;;;;16.52;6.75;;;;;;;;;;4990963;28;20050;-81
2024/04/01 22:29:11;;;;;;;18.85;7.53;;;;;;;;;;4991813;28;20475;-78
2024/04/01 22:31:37;;;;;;;13.43;6.95;;;;;;;;;;5002511;28;20036;-80
2024/04/01 22:34:03;;;;;;;20.73;7.57;;;;;;;;;;5000037;28;20060;-81
2024/04/01 22:36:29;;;;;;;8.32;6.47;;;;;;;;;;4994036;28;20054;-80
2024/04/01 22:38:55;;;;;;;23.15;7.68;;;;;;;;;;5007402;28;20030;-81
2024/04/01 22:41:22;;;;;;;10.40;6.78;;;;;;;;;;4992275;28;20041;-80
2024/04/01 22:43:48;;;;;;;14.93;6.68;;;;;;;;;;4993103;28;20089;-80
2024/04/01 22:46:14;;;;;;;15.63;7.18;;;;;;;;;;4990660;28;20652;-80
2024/04/01 22:48:40;;;;;;;12.18;7.35;;;;;;;;;;4992688;28;20037;-81